North Buena Vista, Iowa
Current Conditions -  °F | °C
As of 12:53 PM on Tuesday 27 Jan 2015 (Local Time) from KDBQ Reporting Station
Overcast Overcast  
Wind Chill: 19°   Ceiling: 1500
Heat Index: 27°   Visibility: 9mi
Dew Point: 21°   Wind: 7mph
Humidity: 78%   Direction: 40°NE
Pressure: 30.18"   Gusts: NA
Location:  42.68°N, 90.96°W
Report Text: KDBQ 271853Z 04006KT 9SM OVC015 M03/M06 A3018 RMK AO2 SLP233 T10281061
Loading
Personal Weather Stations






























Interactive Weather Map New forecast layout! Learn more

10-Day Weather Forecast

Advertisements
Track Severe Weather on mobile